sensor_id;sensor_type;location;lat;lon;timestamp;P1;durP1;ratioP1;P2;durP2;ratioP2
35394;SDS011;21500;45.308;9.488;2023-07-13T05:13:12;6.38;;;4.95;;
35394;SDS011;21500;45.308;9.488;2023-07-13T05:15:38;7.50;;;5.53;;
35394;SDS011;21500;45.308;9.488;2023-07-13T05:18:04;8.85;;;5.85;;
35394;SDS011;21500;45.308;9.488;2023-07-13T05:20:30;9.75;;;6.60;;
35394;SDS011;21500;45.308;9.488;2023-07-13T05:22:56;10.48;;;5.43;;
35394;SDS011;21500;45.308;9.488;2023-07-13T05:25:21;9.30;;;6.47;;
35394;SDS011;21500;45.308;9.488;2023-07-13T05:27:47;8.23;;;5.72;;
35394;SDS011;21500;45.308;9.488;2023-07-13T05:30:13;6.57;;;5.57;;
35394;SDS011;21500;45.308;9.488;2023-07-13T05:32:39;7.00;;;5.03;;
35394;SDS011;21500;45.308;9.488;2023-07-13T05:35:06;7.35;;;4.93;;
35394;SDS011;21500;45.308;9.488;2023-07-13T05:37:32;10.43;;;6.88;;
35394;SDS011;21500;45.308;9.488;2023-07-13T05:39:58;13.73;;;6.65;;
35394;SDS011;21500;45.308;9.488;2023-07-13T05:42:24;9.32;;;5.65;;
35394;SDS011;21500;45.308;9.488;2023-07-13T05:44:50;9.35;;;5.97;;
35394;SDS011;21500;45.308;9.488;2023-07-13T05:47:17;8.30;;;5.47;;
35394;SDS011;21500;45.308;9.488;2023-07-13T05:49:43;7.68;;;5.40;;
35394;SDS011;21500;45.308;9.488;2023-07-13T05:52:09;9.15;;;5.88;;
35394;SDS011;21500;45.308;9.488;2023-07-13T05:54:35;9.30;;;6.18;;
35394;SDS011;21500;45.308;9.488;2023-07-13T05:57:04;8.23;;;5.13;;
35394;SDS011;21500;45.308;9.488;2023-07-13T05:59:37;9.48;;;6.68;;
35394;SDS011;21500;45.308;9.488;2023-07-13T06:02:07;8.68;;;4.70;;
35394;SDS011;21500;45.308;9.488;2023-07-13T06:04:35;10.65;;;5.45;;
35394;SDS011;21500;45.308;9.488;2023-07-13T06:07:03;7.07;;;5.32;;
35394;SDS011;21500;45.308;9.488;2023-07-13T06:09:34;7.85;;;5.03;;
35394;SDS011;21500;45.308;9.488;2023-07-13T06:12:00;8.30;;;5.45;;
35394;SDS011;21500;45.308;9.488;2023-07-13T06:14:26;8.55;;;5.38;;
35394;SDS011;21500;45.308;9.488;2023-07-13T06:16:52;6.43;;;5.22;;
35394;SDS011;21500;45.308;9.488;2023-07-13T06:19:18;8.82;;;5.63;;
35394;SDS011;21500;45.308;9.488;2023-07-13T06:21:44;7.30;;;4.97;;
35394;SDS011;21500;45.308;9.488;2023-07-13T06:24:10;8.20;;;5.93;;
35394;SDS011;21500;45.308;9.488;2023-07-13T06:26:37;7.15;;;4.97;;
35394;SDS011;21500;45.308;9.488;2023-07-13T06:29:03;8.48;;;6.10;;
35394;SDS011;21500;45.308;9.488;2023-07-13T06:31:29;11.23;;;5.97;;
35394;SDS011;21500;45.308;9.488;2023-07-13T06:33:54;6.22;;;5.63;;
35394;SDS011;21500;45.308;9.488;2023-07-13T06:36:20;9.60;;;7.07;;
35394;SDS011;21500;45.308;9.488;2023-07-13T06:38:46;8.00;;;5.68;;
35394;SDS011;21500;45.308;9.488;2023-07-13T06:41:12;9.20;;;6.22;;
35394;SDS011;21500;45.308;9.488;2023-07-13T06:43:38;10.30;;;8.18;;
35394;SDS011;21500;45.308;9.488;2023-07-13T06:46:03;10.32;;;7.70;;
35394;SDS011;21500;45.308;9.488;2023-07-13T06:48:29;8.90;;;6.70;;
35394;SDS011;21500;45.308;9.488;2023-07-13T06:50:55;10.25;;;7.45;;
35394;SDS011;21500;45.308;9.488;2023-07-13T06:53:22;9.52;;;7.05;;
35394;SDS011;21500;45.308;9.488;2023-07-13T06:55:48;9.52;;;6.03;;
35394;SDS011;21500;45.308;9.488;2023-07-13T06:58:17;10.05;;;5.10;;
35394;SDS011;21500;45.308;9.488;2023-07-13T07:00:44;8.90;;;5.03;;
35394;SDS011;21500;45.308;9.488;2023-07-13T07:03:10;5.15;;;3.95;;
35394;SDS011;21500;45.308;9.488;2023-07-13T07:05:36;5.72;;;4.00;;
35394;SDS011;21500;45.308;9.488;2023-07-13T07:08:02;8.98;;;4.40;;
35394;SDS011;21500;45.308;9.488;2023-07-13T07:10:29;8.15;;;4.00;;
35394;SDS011;21500;45.308;9.488;2023-07-13T07:12:55;11.90;;;4.05;;
35394;SDS011;21500;45.308;9.488;2023-07-13T07:15:21;9.50;;;5.32;;
35394;SDS011;21500;45.308;9.488;2023-07-13T07:17:47;7.28;;;3.70;;
35394;SDS011;21500;45.308;9.488;2023-07-13T07:20:13;8.73;;;4.28;;
35394;SDS011;21500;45.308;9.488;2023-07-13T07:22:38;7.43;;;3.25;;
35394;SDS011;21500;45.308;9.488;2023-07-13T07:25:04;6.45;;;4.28;;
35394;SDS011;21500;45.308;9.488;2023-07-13T07:27:30;7.13;;;4.15;;
35394;SDS011;21500;45.308;9.488;2023-07-13T07:29:58;7.18;;;4.43;;
35394;SDS011;21500;45.308;9.488;2023-07-13T07:32:24;5.60;;;4.25;;
35394;SDS011;21500;45.308;9.488;2023-07-13T07:34:50;11.27;;;5.47;;
35394;SDS011;21500;45.308;9.488;2023-07-13T07:37:16;6.80;;;4.63;;
35394;SDS011;21500;45.308;9.488;2023-07-13T07:39:42;11.55;;;5.40;;
35394;SDS011;21500;45.308;9.488;2023-07-13T07:42:08;8.38;;;4.63;;
35394;SDS011;21500;45.308;9.488;2023-07-13T07:44:34;6.97;;;4.53;;
35394;SDS011;21500;45.308;9.488;2023-07-13T07:47:00;7.88;;;4.32;;
35394;SDS011;21500;45.308;9.488;2023-07-13T07:49:26;9.55;;;4.50;;
35394;SDS011;21500;45.308;9.488;2023-07-13T07:51:52;9.13;;;4.57;;
35394;SDS011;21500;45.308;9.488;2023-07-13T07:54:18;5.40;;;3.47;;
35394;SDS011;21500;45.308;9.488;2023-07-13T07:56:44;8.07;;;4.32;;
35394;SDS011;21500;45.308;9.488;2023-07-13T07:59:09;7.88;;;4.00;;
35394;SDS011;21500;45.308;9.488;2023-07-13T08:01:36;5.85;;;3.95;;
35394;SDS011;21500;45.308;9.488;2023-07-13T08:04:02;5.63;;;3.33;;
35394;SDS011;21500;45.308;9.488;2023-07-13T08:06:28;5.53;;;4.05;;
35394;SDS011;21500;45.308;9.488;2023-07-13T08:08:58;8.50;;;4.43;;
35394;SDS011;21500;45.308;9.488;2023-07-13T08:11:25;9.20;;;4.60;;
35394;SDS011;21500;45.308;9.488;2023-07-13T08:13:51;8.00;;;4.60;;
35394;SDS011;21500;45.308;9.488;2023-07-13T08:16:16;6.82;;;4.10;;
35394;SDS011;21500;45.308;9.488;2023-07-13T08:18:42;6.03;;;4.78;;
35394;SDS011;21500;45.308;9.488;2023-07-13T08:21:08;11.30;;;4.13;;
35394;SDS011;21500;45.308;9.488;2023-07-13T08:23:35;5.57;;;4.22;;
35394;SDS011;21500;45.308;9.488;2023-07-13T08:26:01;7.82;;;4.07;;
35394;SDS011;21500;45.308;9.488;2023-07-13T08:28:28;7.63;;;4.40;;
35394;SDS011;21500;45.308;9.488;2023-07-13T08:30:54;5.88;;;3.42;;
35394;SDS011;21500;45.308;9.488;2023-07-13T08:33:20;5.75;;;3.33;;
35394;SDS011;21500;45.308;9.488;2023-07-13T08:35:50;7.85;;;3.85;;
35394;SDS011;21500;45.308;9.488;2023-07-13T08:38:16;7.32;;;3.53;;
35394;SDS011;21500;45.308;9.488;2023-07-13T08:40:43;7.88;;;4.93;;
35394;SDS011;21500;45.308;9.488;2023-07-13T08:43:28;7.22;;;5.07;;
35394;SDS011;21500;45.308;9.488;2023-07-13T08:48:31;6.93;;;4.68;;
35394;SDS011;21500;45.308;9.488;2023-07-13T08:53:47;5.93;;;3.92;;
35394;SDS011;21500;45.308;9.488;2023-07-13T08:56:19;6.20;;;3.63;;
35394;SDS011;21500;45.308;9.488;2023-07-13T08:58:48;6.07;;;3.22;;
35394;SDS011;21500;45.308;9.488;2023-07-13T09:04:26;5.25;;;3.42;;
35394;SDS011;21500;45.308;9.488;2023-07-13T09:07:21;4.13;;;3.15;;
35394;SDS011;21500;45.308;9.488;2023-07-13T09:09:54;6.63;;;3.80;;
35394;SDS011;21500;45.308;9.488;2023-07-13T09:15:41;8.13;;;4.10;;
35394;SDS011;21500;45.308;9.488;2023-07-13T09:18:27;8.98;;;4.05;;
35394;SDS011;21500;45.308;9.488;2023-07-13T09:21:00;4.72;;;3.15;;
35394;SDS011;21500;45.308;9.488;2023-07-13T09:23:31;5.75;;;3.75;;
35394;SDS011;21500;45.308;9.488;2023-07-13T09:26:39;6.95;;;4.53;;
35394;SDS011;21500;45.308;9.488;2023-07-13T09:28:49;5.65;;;3.22;;
35394;SDS011;21500;45.308;9.488;2023-07-13T09:31:30;8.70;;;4.57;;
35394;SDS011;21500;45.308;9.488;2023-07-13T09:34:11;6.05;;;4.10;;
35394;SDS011;21500;45.308;9.488;2023-07-13T09:36:38;8.75;;;4.40;;
35394;SDS011;21500;45.308;9.488;2023-07-13T09:44:17;9.68;;;4.82;;
35394;SDS011;21500;45.308;9.488;2023-07-13T09:46:56;6.95;;;3.63;;
35394;SDS011;21500;45.308;9.488;2023-07-13T09:49:31;7.80;;;3.60;;
35394;SDS011;21500;45.308;9.488;2023-07-13T09:52:03;10.73;;;3.30;;
35394;SDS011;21500;45.308;9.488;2023-07-13T09:54:35;4.75;;;2.67;;
35394;SDS011;21500;45.308;9.488;2023-07-13T09:57:11;5.13;;;3.00;;
35394;SDS011;21500;45.308;9.488;2023-07-13T09:59:43;6.70;;;3.00;;
35394;SDS011;21500;45.308;9.488;2023-07-13T10:02:25;4.32;;;3.15;;
35394;SDS011;21500;45.308;9.488;2023-07-13T10:05:00;8.18;;;2.92;;
35394;SDS011;21500;45.308;9.488;2023-07-13T10:07:42;6.13;;;3.47;;
35394;SDS011;21500;45.308;9.488;2023-07-13T10:10:20;5.60;;;3.63;;
35394;SDS011;21500;45.308;9.488;2023-07-13T10:12:49;8.98;;;4.15;;
35394;SDS011;21500;45.308;9.488;2023-07-13T10:15:21;4.15;;;3.42;;
35394;SDS011;21500;45.308;9.488;2023-07-13T10:17:49;4.35;;;3.55;;
35394;SDS011;21500;45.308;9.488;2023-07-13T10:20:20;5.70;;;4.07;;
35394;SDS011;21500;45.308;9.488;2023-07-13T10:22:59;7.05;;;4.75;;
35394;SDS011;21500;45.308;9.488;2023-07-13T10:25:34;6.35;;;4.45;;
35394;SDS011;21500;45.308;9.488;2023-07-13T10:28:19;6.07;;;3.87;;
35394;SDS011;21500;45.308;9.488;2023-07-13T10:30:58;5.80;;;3.40;;
35394;SDS011;21500;45.308;9.488;2023-07-13T10:33:26;6.13;;;3.58;;
35394;SDS011;21500;45.308;9.488;2023-07-13T10:36:03;5.63;;;3.00;;
35394;SDS011;21500;45.308;9.488;2023-07-13T10:38:45;12.25;;;4.50;;
35394;SDS011;21500;45.308;9.488;2023-07-13T10:41:15;7.70;;;3.28;;
35394;SDS011;21500;45.308;9.488;2023-07-13T10:43:46;2.85;;;2.00;;
35394;SDS011;21500;45.308;9.488;2023-07-13T10:46:16;6.63;;;2.40;;
35394;SDS011;21500;45.308;9.488;2023-07-13T10:48:46;3.60;;;1.65;;
35394;SDS011;21500;45.308;9.488;2023-07-13T10:51:19;3.20;;;1.10;;
35394;SDS011;21500;45.308;9.488;2023-07-13T10:53:47;4.03;;;1.52;;
35394;SDS011;21500;45.308;9.488;2023-07-13T10:56:22;6.05;;;2.28;;
35394;SDS011;21500;45.308;9.488;2023-07-13T10:59:01;4.22;;;3.17;;
35394;SDS011;21500;45.308;9.488;2023-07-13T11:01:40;3.65;;;1.60;;
35394;SDS011;21500;45.308;9.488;2023-07-13T11:04:12;4.00;;;2.15;;
35394;SDS011;21500;45.308;9.488;2023-07-13T11:06:40;2.42;;;1.73;;
35394;SDS011;21500;45.308;9.488;2023-07-13T11:12:28;3.33;;;1.98;;
35394;SDS011;21500;45.308;9.488;2023-07-13T11:25:30;5.68;;;2.72;;
35394;SDS011;21500;45.308;9.488;2023-07-13T11:30:41;6.10;;;2.97;;
35394;SDS011;21500;45.308;9.488;2023-07-13T11:38:41;3.75;;;2.13;;
35394;SDS011;21500;45.308;9.488;2023-07-13T11:41:16;6.88;;;2.30;;
35394;SDS011;21500;45.308;9.488;2023-07-13T11:43:45;5.15;;;2.70;;
35394;SDS011;21500;45.308;9.488;2023-07-13T11:46:15;5.03;;;1.90;;
35394;SDS011;21500;45.308;9.488;2023-07-13T11:48:45;7.20;;;2.15;;
35394;SDS011;21500;45.308;9.488;2023-07-13T11:51:22;4.95;;;2.40;;
35394;SDS011;21500;45.308;9.488;2023-07-13T11:53:52;3.45;;;1.70;;
35394;SDS011;21500;45.308;9.488;2023-07-13T11:56:20;5.57;;;2.63;;
35394;SDS011;21500;45.308;9.488;2023-07-13T11:58:48;5.00;;;3.22;;
35394;SDS011;21500;45.308;9.488;2023-07-13T12:01:26;5.32;;;2.33;;
35394;SDS011;21500;45.308;9.488;2023-07-13T12:03:57;3.05;;;1.52;;
35394;SDS011;21500;45.308;9.488;2023-07-13T12:06:29;6.65;;;2.58;;
35394;SDS011;21500;45.308;9.488;2023-07-13T12:09:03;3.30;;;2.17;;
35394;SDS011;21500;45.308;9.488;2023-07-13T12:11:38;5.38;;;2.17;;
35394;SDS011;21500;45.308;9.488;2023-07-13T12:14:10;5.15;;;1.73;;
35394;SDS011;21500;45.308;9.488;2023-07-13T12:16:40;3.88;;;2.20;;
35394;SDS011;21500;45.308;9.488;2023-07-13T12:19:13;5.75;;;2.20;;
35394;SDS011;21500;45.308;9.488;2023-07-13T12:22:11;4.22;;;1.88;;
35394;SDS011;21500;45.308;9.488;2023-07-13T12:24:38;2.22;;;1.50;;
35394;SDS011;21500;45.308;9.488;2023-07-13T12:27:05;3.13;;;2.22;;
35394;SDS011;21500;45.308;9.488;2023-07-13T12:29:32;5.35;;;2.80;;
35394;SDS011;21500;45.308;9.488;2023-07-13T12:31:59;8.77;;;2.38;;
35394;SDS011;21500;45.308;9.488;2023-07-13T12:34:25;4.97;;;1.90;;
35394;SDS011;21500;45.308;9.488;2023-07-13T12:44:39;10.43;;;4.05;;
35394;SDS011;21500;45.308;9.488;2023-07-13T12:47:09;8.32;;;2.42;;
35394;SDS011;21500;45.308;9.488;2023-07-13T12:49:40;3.58;;;1.58;;
35394;SDS011;21500;45.308;9.488;2023-07-13T12:52:21;3.20;;;2.00;;
35394;SDS011;21500;45.308;9.488;2023-07-13T12:54:53;5.05;;;2.13;;
35394;SDS011;21500;45.308;9.488;2023-07-13T12:57:22;3.58;;;2.30;;
35394;SDS011;21500;45.308;9.488;2023-07-13T12:59:51;5.25;;;2.58;;
35394;SDS011;21500;45.308;9.488;2023-07-13T13:02:29;6.50;;;3.10;;
35394;SDS011;21500;45.308;9.488;2023-07-13T13:04:57;11.02;;;2.40;;
35394;SDS011;21500;45.308;9.488;2023-07-13T13:07:24;5.05;;;2.22;;
35394;SDS011;21500;45.308;9.488;2023-07-13T13:09:51;2.47;;;1.98;;
35394;SDS011;21500;45.308;9.488;2023-07-13T13:12:19;7.43;;;2.15;;
35394;SDS011;21500;45.308;9.488;2023-07-13T13:14:45;11.05;;;3.08;;
35394;SDS011;21500;45.308;9.488;2023-07-13T13:17:28;3.60;;;1.60;;
35394;SDS011;21500;45.308;9.488;2023-07-13T13:19:56;3.85;;;2.22;;
35394;SDS011;21500;45.308;9.488;2023-07-13T13:22:22;5.25;;;2.20;;
35394;SDS011;21500;45.308;9.488;2023-07-13T13:24:48;5.22;;;2.15;;
35394;SDS011;21500;45.308;9.488;2023-07-13T13:27:15;5.38;;;2.33;;
35394;SDS011;21500;45.308;9.488;2023-07-13T13:29:45;7.53;;;2.47;;
35394;SDS011;21500;45.308;9.488;2023-07-13T13:32:31;6.78;;;1.83;;
35394;SDS011;21500;45.308;9.488;2023-07-13T13:34:57;3.67;;;2.08;;
35394;SDS011;21500;45.308;9.488;2023-07-13T13:37:23;8.68;;;2.83;;
35394;SDS011;21500;45.308;9.488;2023-07-13T13:39:51;5.05;;;1.90;;
35394;SDS011;21500;45.308;9.488;2023-07-13T13:42:18;4.00;;;2.95;;
35394;SDS011;21500;45.308;9.488;2023-07-13T13:44:47;4.90;;;2.33;;
35394;SDS011;21500;45.308;9.488;2023-07-13T13:47:33;4.32;;;2.25;;
35394;SDS011;21500;45.308;9.488;2023-07-13T13:50:01;5.47;;;2.60;;
35394;SDS011;21500;45.308;9.488;2023-07-13T13:52:35;5.22;;;3.13;;
35394;SDS011;21500;45.308;9.488;2023-07-13T13:55:01;6.30;;;2.88;;
35394;SDS011;21500;45.308;9.488;2023-07-13T13:57:27;4.97;;;2.47;;
35394;SDS011;21500;45.308;9.488;2023-07-13T13:59:54;6.55;;;2.38;;
35394;SDS011;21500;45.308;9.488;2023-07-13T14:02:22;6.78;;;2.35;;
35394;SDS011;21500;45.308;9.488;2023-07-13T14:04:52;7.35;;;2.72;;
35394;SDS011;21500;45.308;9.488;2023-07-13T14:07:24;4.95;;;2.95;;
35394;SDS011;21500;45.308;9.488;2023-07-13T14:09:53;4.57;;;2.10;;
35394;SDS011;21500;45.308;9.488;2023-07-13T14:12:20;7.93;;;2.58;;
35394;SDS011;21500;45.308;9.488;2023-07-13T14:14:46;6.30;;;3.00;;
35394;SDS011;21500;45.308;9.488;2023-07-13T14:17:21;8.27;;;2.92;;
35394;SDS011;21500;45.308;9.488;2023-07-13T14:19:50;5.82;;;3.67;;
35394;SDS011;21500;45.308;9.488;2023-07-13T14:22:22;3.38;;;2.25;;
35394;SDS011;21500;45.308;9.488;2023-07-13T14:24:50;3.72;;;2.40;;
35394;SDS011;21500;45.308;9.488;2023-07-13T14:27:17;7.55;;;2.90;;
35394;SDS011;21500;45.308;9.488;2023-07-13T14:29:42;4.10;;;2.10;;
35394;SDS011;21500;45.308;9.488;2023-07-13T14:32:11;12.40;;;2.72;;
35394;SDS011;21500;45.308;9.488;2023-07-13T14:34:38;5.32;;;3.05;;
35394;SDS011;21500;45.308;9.488;2023-07-13T14:37:11;7.00;;;3.42;;
35394;SDS011;21500;45.308;9.488;2023-07-13T14:39:43;9.88;;;4.15;;
35394;SDS011;21500;45.308;9.488;2023-07-13T14:42:13;7.57;;;3.67;;
35394;SDS011;21500;45.308;9.488;2023-07-13T14:44:48;6.68;;;3.20;;
35394;SDS011;21500;45.308;9.488;2023-07-13T14:47:17;8.82;;;3.15;;
35394;SDS011;21500;45.308;9.488;2023-07-13T14:49:44;6.20;;;3.55;;
35394;SDS011;21500;45.308;9.488;2023-07-13T14:52:21;6.43;;;2.80;;
35394;SDS011;21500;45.308;9.488;2023-07-13T14:54:49;9.63;;;3.00;;
35394;SDS011;21500;45.308;9.488;2023-07-13T14:57:45;5.80;;;2.80;;
35394;SDS011;21500;45.308;9.488;2023-07-13T15:00:30;5.57;;;2.90;;
35394;SDS011;21500;45.308;9.488;2023-07-13T15:02:57;9.77;;;2.97;;
35394;SDS011;21500;45.308;9.488;2023-07-13T15:05:44;4.22;;;2.70;;
35394;SDS011;21500;45.308;9.488;2023-07-13T15:15:53;7.20;;;3.10;;
35394;SDS011;21500;45.308;9.488;2023-07-13T15:18:21;11.57;;;3.33;;
35394;SDS011;21500;45.308;9.488;2023-07-13T15:20:49;8.40;;;2.70;;
35394;SDS011;21500;45.308;9.488;2023-07-13T15:23:17;5.63;;;3.13;;
35394;SDS011;21500;45.308;9.488;2023-07-13T15:25:44;4.32;;;2.85;;
35394;SDS011;21500;45.308;9.488;2023-07-13T15:28:11;8.80;;;3.53;;
35394;SDS011;21500;45.308;9.488;2023-07-13T15:30:44;7.90;;;3.60;;
35394;SDS011;21500;45.308;9.488;2023-07-13T15:35:47;8.40;;;2.95;;
35394;SDS011;21500;45.308;9.488;2023-07-13T15:38:15;10.82;;;3.90;;
35394;SDS011;21500;45.308;9.488;2023-07-13T15:40:43;5.55;;;2.83;;
35394;SDS011;21500;45.308;9.488;2023-07-13T15:43:13;9.02;;;3.65;;
35394;SDS011;21500;45.308;9.488;2023-07-13T15:45:40;8.20;;;3.15;;
35394;SDS011;21500;45.308;9.488;2023-07-13T15:48:14;6.90;;;3.00;;
35394;SDS011;21500;45.308;9.488;2023-07-13T15:50:47;8.48;;;4.03;;
35394;SDS011;21500;45.308;9.488;2023-07-13T15:55:52;8.95;;;3.33;;
35394;SDS011;21500;45.308;9.488;2023-07-13T16:01:10;7.15;;;4.47;;
35394;SDS011;21500;45.308;9.488;2023-07-13T16:03:36;10.68;;;3.88;;
35394;SDS011;21500;45.308;9.488;2023-07-13T16:06:02;6.93;;;3.47;;
35394;SDS011;21500;45.308;9.488;2023-07-13T16:08:30;7.20;;;3.28;;
35394;SDS011;21500;45.308;9.488;2023-07-13T16:10:58;7.32;;;3.53;;
35394;SDS011;21500;45.308;9.488;2023-07-13T16:17:03;11.40;;;3.55;;
35394;SDS011;21500;45.308;9.488;2023-07-13T16:19:31;10.10;;;3.65;;
35394;SDS011;21500;45.308;9.488;2023-07-13T16:21:58;7.50;;;3.83;;
35394;SDS011;21500;45.308;9.488;2023-07-13T16:24:30;9.88;;;3.30;;
35394;SDS011;21500;45.308;9.488;2023-07-13T16:26:57;8.90;;;4.05;;
35394;SDS011;21500;45.308;9.488;2023-07-13T16:29:27;11.68;;;5.13;;
35394;SDS011;21500;45.308;9.488;2023-07-13T16:34:31;9.80;;;3.75;;
35394;SDS011;21500;45.308;9.488;2023-07-13T16:36:58;6.70;;;3.15;;
35394;SDS011;21500;45.308;9.488;2023-07-13T16:39:26;8.05;;;3.55;;
35394;SDS011;21500;45.308;9.488;2023-07-13T16:41:52;8.43;;;3.08;;
35394;SDS011;21500;45.308;9.488;2023-07-13T16:44:20;8.18;;;4.25;;
35394;SDS011;21500;45.308;9.488;2023-07-13T16:46:51;9.10;;;3.88;;
35394;SDS011;21500;45.308;9.488;2023-07-13T16:51:53;12.35;;;4.85;;
35394;SDS011;21500;45.308;9.488;2023-07-13T17:02:35;8.77;;;3.50;;
35394;SDS011;21500;45.308;9.488;2023-07-13T17:16:33;4.47;;;2.75;;
35394;SDS011;21500;45.308;9.488;2023-07-13T17:19:11;5.25;;;3.13;;
35394;SDS011;21500;45.308;9.488;2023-07-13T17:21:51;9.55;;;3.20;;
35394;SDS011;21500;45.308;9.488;2023-07-13T17:24:21;10.15;;;3.22;;
35394;SDS011;21500;45.308;9.488;2023-07-13T17:43:30;10.73;;;3.40;;
35394;SDS011;21500;45.308;9.488;2023-07-13T18:01:19;8.18;;;4.20;;
35394;SDS011;21500;45.308;9.488;2023-07-13T18:04:56;7.35;;;3.28;;
35394;SDS011;21500;45.308;9.488;2023-07-13T18:37:27;11.48;;;4.00;;
35394;SDS011;21500;45.308;9.488;2023-07-13T18:40:34;8.13;;;2.83;;
35394;SDS011;21500;45.308;9.488;2023-07-13T18:43:00;6.55;;;3.00;;
35394;SDS011;21500;45.308;9.488;2023-07-13T18:45:27;7.35;;;3.10;;
35394;SDS011;21500;45.308;9.488;2023-07-13T18:47:54;9.88;;;3.53;;
35394;SDS011;21500;45.308;9.488;2023-07-13T18:50:28;10.05;;;3.42;;
35394;SDS011;21500;45.308;9.488;2023-07-13T18:52:55;11.07;;;3.45;;
35394;SDS011;21500;45.308;9.488;2023-07-13T18:55:21;7.03;;;2.92;;
35394;SDS011;21500;45.308;9.488;2023-07-13T18:57:49;7.05;;;3.97;;
35394;SDS011;21500;45.308;9.488;2023-07-13T19:00:23;6.95;;;2.95;;
35394;SDS011;21500;45.308;9.488;2023-07-13T19:03:04;10.25;;;3.97;;
35394;SDS011;21500;45.308;9.488;2023-07-13T19:05:34;8.02;;;3.83;;
35394;SDS011;21500;45.308;9.488;2023-07-13T19:08:00;9.27;;;3.00;;
35394;SDS011;21500;45.308;9.488;2023-07-13T19:18:35;5.65;;;3.00;;
35394;SDS011;21500;45.308;9.488;2023-07-13T19:21:41;9.07;;;3.60;;
35394;SDS011;21500;45.308;9.488;2023-07-13T19:24:12;5.97;;;3.25;;
35394;SDS011;21500;45.308;9.488;2023-07-13T19:26:44;8.27;;;3.20;;
35394;SDS011;21500;45.308;9.488;2023-07-13T19:29:16;8.32;;;3.97;;
35394;SDS011;21500;45.308;9.488;2023-07-13T19:50:37;7.40;;;3.53;;
35394;SDS011;21500;45.308;9.488;2023-07-13T19:53:23;5.93;;;3.45;;
35394;SDS011;21500;45.308;9.488;2023-07-13T19:55:49;5.15;;;3.85;;
35394;SDS011;21500;45.308;9.488;2023-07-13T19:58:14;7.22;;;3.35;;
35394;SDS011;21500;45.308;9.488;2023-07-13T20:00:41;5.13;;;2.83;;
35394;SDS011;21500;45.308;9.488;2023-07-13T20:03:08;4.80;;;3.20;;
35394;SDS011;21500;45.308;9.488;2023-07-13T20:05:33;5.97;;;3.42;;
35394;SDS011;21500;45.308;9.488;2023-07-13T20:08:04;6.82;;;3.60;;
35394;SDS011;21500;45.308;9.488;2023-07-13T20:10:38;6.97;;;3.65;;
35394;SDS011;21500;45.308;9.488;2023-07-13T20:13:04;6.45;;;2.95;;
35394;SDS011;21500;45.308;9.488;2023-07-13T20:15:46;5.68;;;3.70;;
35394;SDS011;21500;45.308;9.488;2023-07-13T20:18:15;4.30;;;3.20;;
35394;SDS011;21500;45.308;9.488;2023-07-13T20:20:44;5.07;;;2.80;;
35394;SDS011;21500;45.308;9.488;2023-07-13T20:23:18;7.88;;;3.10;;
35394;SDS011;21500;45.308;9.488;2023-07-13T20:25:46;4.40;;;3.25;;
35394;SDS011;21500;45.308;9.488;2023-07-13T20:28:15;8.43;;;2.95;;
35394;SDS011;21500;45.308;9.488;2023-07-13T20:30:45;5.78;;;3.28;;
35394;SDS011;21500;45.308;9.488;2023-07-13T20:33:16;5.03;;;3.28;;
35394;SDS011;21500;45.308;9.488;2023-07-13T20:35:50;8.38;;;3.33;;
35394;SDS011;21500;45.308;9.488;2023-07-13T20:38:22;9.18;;;4.47;;
35394;SDS011;21500;45.308;9.488;2023-07-13T20:40:48;7.50;;;4.38;;
35394;SDS011;21500;45.308;9.488;2023-07-13T20:43:18;6.07;;;3.30;;
35394;SDS011;21500;45.308;9.488;2023-07-13T20:45:45;5.88;;;3.53;;
35394;SDS011;21500;45.308;9.488;2023-07-13T20:51:04;7.15;;;3.90;;
35394;SDS011;21500;45.308;9.488;2023-07-13T20:53:33;4.38;;;3.00;;
35394;SDS011;21500;45.308;9.488;2023-07-13T20:56:00;5.75;;;2.92;;
35394;SDS011;21500;45.308;9.488;2023-07-13T20:58:26;4.82;;;3.38;;
35394;SDS011;21500;45.308;9.488;2023-07-13T21:00:51;8.10;;;3.33;;
35394;SDS011;21500;45.308;9.488;2023-07-13T21:03:23;6.57;;;3.15;;
35394;SDS011;21500;45.308;9.488;2023-07-13T21:05:53;6.63;;;3.13;;
35394;SDS011;21500;45.308;9.488;2023-07-13T21:08:22;3.83;;;3.38;;
35394;SDS011;21500;45.308;9.488;2023-07-13T21:13:17;6.85;;;3.67;;
35394;SDS011;21500;45.308;9.488;2023-07-13T21:15:46;10.20;;;4.00;;
35394;SDS011;21500;45.308;9.488;2023-07-13T21:18:16;6.72;;;4.70;;
35394;SDS011;21500;45.308;9.488;2023-07-13T21:20:51;6.07;;;3.42;;
35394;SDS011;21500;45.308;9.488;2023-07-13T21:25:59;4.38;;;3.08;;
35394;SDS011;21500;45.308;9.488;2023-07-13T21:28:26;6.55;;;3.38;;
35394;SDS011;21500;45.308;9.488;2023-07-13T21:30:57;6.95;;;3.35;;
35394;SDS011;21500;45.308;9.488;2023-07-13T21:33:25;5.28;;;3.03;;
35394;SDS011;21500;45.308;9.488;2023-07-13T21:35:52;7.13;;;2.83;;
35394;SDS011;21500;45.308;9.488;2023-07-13T21:38:29;5.18;;;2.78;;
35394;SDS011;21500;45.308;9.488;2023-07-13T21:41:01;5.47;;;3.03;;
35394;SDS011;21500;45.308;9.488;2023-07-13T21:43:30;4.63;;;3.38;;
35394;SDS011;21500;45.308;9.488;2023-07-13T21:45:56;6.28;;;2.88;;
35394;SDS011;21500;45.308;9.488;2023-07-13T21:48:22;5.80;;;3.20;;
35394;SDS011;21500;45.308;9.488;2023-07-13T21:50:49;5.90;;;2.60;;
35394;SDS011;21500;45.308;9.488;2023-07-13T21:53:31;4.57;;;3.15;;
35394;SDS011;21500;45.308;9.488;2023-07-13T21:56:14;5.97;;;2.83;;
35394;SDS011;21500;45.308;9.488;2023-07-13T21:58:40;12.63;;;3.38;;
35394;SDS011;21500;45.308;9.488;2023-07-13T22:01:12;8.60;;;3.42;;
35394;SDS011;21500;45.308;9.488;2023-07-13T22:03:49;5.47;;;3.45;;
35394;SDS011;21500;45.308;9.488;2023-07-13T22:06:21;8.82;;;3.78;;
35394;SDS011;21500;45.308;9.488;2023-07-13T22:08:49;6.68;;;3.83;;
35394;SDS011;21500;45.308;9.488;2023-07-13T22:11:22;4.57;;;3.22;;
35394;SDS011;21500;45.308;9.488;2023-07-13T22:13:49;6.65;;;4.32;;
35394;SDS011;21500;45.308;9.488;2023-07-13T22:16:23;7.03;;;4.90;;
35394;SDS011;21500;45.308;9.488;2023-07-13T22:18:52;7.70;;;5.05;;
35394;SDS011;21500;45.308;9.488;2023-07-13T22:21:20;11.07;;;7.03;;
35394;SDS011;21500;45.308;9.488;2023-07-13T22:23:48;5.70;;;4.43;;
35394;SDS011;21500;45.308;9.488;2023-07-13T22:26:21;5.03;;;4.50;;
35394;SDS011;21500;45.308;9.488;2023-07-13T22:28:56;6.80;;;4.60;;
35394;SDS011;21500;45.308;9.488;2023-07-13T22:31:24;5.93;;;4.63;;
35394;SDS011;21500;45.308;9.488;2023-07-13T22:33:53;6.50;;;4.43;;
35394;SDS011;21500;45.308;9.488;2023-07-13T22:36:24;5.07;;;3.65;;
35394;SDS011;21500;45.308;9.488;2023-07-13T22:38:50;5.88;;;5.00;;
35394;SDS011;21500;45.308;9.488;2023-07-13T22:41:19;4.65;;;4.15;;
35394;SDS011;21500;45.308;9.488;2023-07-13T22:43:46;7.40;;;4.57;;
35394;SDS011;21500;45.308;9.488;2023-07-13T22:46:14;4.65;;;4.00;;
35394;SDS011;21500;45.308;9.488;2023-07-13T22:48:54;5.28;;;4.22;;
35394;SDS011;21500;45.308;9.488;2023-07-13T22:51:25;5.90;;;4.90;;
35394;SDS011;21500;45.308;9.488;2023-07-13T22:53:52;5.38;;;4.43;;
35394;SDS011;21500;45.308;9.488;2023-07-13T22:56:20;7.13;;;4.45;;
35394;SDS011;21500;45.308;9.488;2023-07-13T22:58:46;7.78;;;4.85;;
35394;SDS011;21500;45.308;9.488;2023-07-13T23:01:16;8.15;;;6.03;;
35394;SDS011;21500;45.308;9.488;2023-07-13T23:03:52;9.38;;;6.35;;
35394;SDS011;21500;45.308;9.488;2023-07-13T23:06:21;7.43;;;5.35;;
35394;SDS011;21500;45.308;9.488;2023-07-13T23:09:09;5.90;;;5.30;;
35394;SDS011;21500;45.308;9.488;2023-07-13T23:11:40;8.10;;;6.30;;
35394;SDS011;21500;45.308;9.488;2023-07-13T23:14:06;8.93;;;6.57;;
35394;SDS011;21500;45.308;9.488;2023-07-13T23:16:32;6.80;;;6.00;;
35394;SDS011;21500;45.308;9.488;2023-07-13T23:18:58;8.45;;;6.05;;
35394;SDS011;21500;45.308;9.488;2023-07-13T23:21:25;12.90;;;7.40;;
35394;SDS011;21500;45.308;9.488;2023-07-13T23:23:51;11.00;;;7.55;;